Time;durP1;ratioP1;P1;durP2;ratioP2;P2;SDS_P1;SDS_P2;PMS_P1;PMS_P2;Temp;Humidity;BMP_temperature;BMP_pressure;BME280_temperature;BME280_humidity;BME280_pressure;Samples;Min_cycle;Max_cycle;Signal;HPM_P1;HPM_P2
2024/02/23 00:00:13;;;;;;;;;;;9.70;78.70;;;;;;5044761;28;19929;-64
2024/02/23 00:02:40;;;;;;;;;;;9.70;78.30;;;;;;5040004;28;20011;-63
2024/02/23 00:05:13;;;;;;;;;;;9.70;77.90;;;;;;5042120;28;21080;-65
2024/02/23 00:07:47;;;;;;;;;;;9.70;77.80;;;;;;5039835;28;19928;-65
2024/02/23 00:10:21;;;;;;;;;;;9.70;78.10;;;;;;5042192;28;20398;-65
2024/02/23 00:12:54;;;;;;;;;;;9.70;77.70;;;;;;5042803;28;20300;-64
2024/02/23 00:15:27;;;;;;;;;;;9.60;77.10;;;;;;5043629;28;19953;-64
2024/02/23 00:18:00;;;;;;;;;;;9.60;77.50;;;;;;5035717;28;19929;-64
2024/02/23 00:20:33;;;;;;;;;;;9.60;77.60;;;;;;5039220;28;19936;-65
2024/02/23 00:23:07;;;;;;;;;;;9.60;77.40;;;;;;5040983;28;19928;-64
2024/02/23 00:25:41;;;;;;;;;;;9.60;76.80;;;;;;5038117;28;19931;-57
2024/02/23 00:28:15;;;;;;;;;;;9.60;77.10;;;;;;5040759;28;19931;-60
2024/02/23 00:30:48;;;;;;;;;;;9.60;77.00;;;;;;5043053;28;19929;-57
2024/02/23 00:33:21;;;;;;;;;;;9.50;76.30;;;;;;5027287;28;19932;-57
2024/02/23 00:35:54;;;;;;;;;;;9.50;76.10;;;;;;5042999;28;19939;-60
2024/02/23 00:38:28;;;;;;;;;;;9.50;76.50;;;;;;5042668;28;19956;-59
2024/02/23 00:41:02;;;;;;;;;;;9.40;76.30;;;;;;5037348;28;19932;-59
2024/02/23 00:43:38;;;;;;;;;;;9.40;76.40;;;;;;5044460;28;19929;-59
2024/02/23 00:46:12;;;;;;;;;;;9.40;76.70;;;;;;5040835;28;19935;-60
2024/02/23 00:48:45;;;;;;;;;;;9.40;76.20;;;;;;5040540;28;20341;-58
2024/02/23 00:51:18;;;;;;;;;;;9.40;76.60;;;;;;5033861;28;20378;-59
2024/02/23 00:53:52;;;;;;;;;;;9.40;76.80;;;;;;5043646;28;19955;-59
2024/02/23 00:56:27;;;;;;;;;;;9.30;76.80;;;;;;5041859;28;19960;-59
2024/02/23 00:59:01;;;;;;;;;;;9.40;76.90;;;;;;5046068;28;19929;-59
2024/02/23 01:01:34;;;;;;;;;;;9.30;76.70;;;;;;5046527;28;19929;-58
2024/02/23 01:04:07;;;;;;;;;;;9.30;76.60;;;;;;5047461;28;19929;-59
2024/02/23 01:06:40;;;;;;;;;;;9.30;76.70;;;;;;5047630;28;20047;-58
2024/02/23 01:09:08;;;;;;;;;;;9.30;76.30;;;;;;5047184;28;19935;-58
2024/02/23 01:11:41;;;;;;;;;;;9.30;76.30;;;;;;5045270;28;19924;-56
2024/02/23 01:14:14;;;;;;;;;;;9.20;76.00;;;;;;5041892;28;19932;-58
2024/02/23 01:16:40;;;;;;;;;;;9.20;75.30;;;;;;5046181;28;19929;-58
2024/02/23 01:19:15;;;;;;;;;;;9.20;75.20;;;;;;5042617;28;20293;-59
2024/02/23 01:21:55;;;;;;;;;;;9.20;74.70;;;;;;5043590;28;19929;-58
2024/02/23 01:24:30;;;;;;;;;;;9.20;74.60;;;;;;5040234;28;19944;-58
2024/02/23 01:27:04;;;;;;;;;;;9.10;74.40;;;;;;5042972;28;19935;-59
2024/02/23 01:29:38;;;;;;;;;;;9.10;73.90;;;;;;5040198;28;20376;-60
2024/02/23 01:32:05;;;;;;;;;;;9.10;74.20;;;;;;5041179;28;19940;-58
2024/02/23 01:34:38;;;;;;;;;;;9.00;74.00;;;;;;5036795;28;19974;-62
2024/02/23 01:37:11;;;;;;;;;;;9.10;75.10;;;;;;5039672;28;19925;-62
2024/02/23 01:39:46;;;;;;;;;;;9.10;74.30;;;;;;5044019;28;19932;-60
2024/02/23 01:42:13;;;;;;;;;;;9.10;74.60;;;;;;5046054;28;20276;-62
2024/02/23 01:44:47;;;;;;;;;;;9.00;74.10;;;;;;5043363;28;20035;-61
2024/02/23 01:47:20;;;;;;;;;;;9.00;74.00;;;;;;5036557;28;19925;-61
2024/02/23 01:49:53;;;;;;;;;;;9.00;74.50;;;;;;5040554;28;20342;-60
2024/02/23 01:52:27;;;;;;;;;;;9.00;74.30;;;;;;5034989;28;19931;-61
2024/02/23 01:55:02;;;;;;;;;;;8.90;74.50;;;;;;5041678;28;19936;-60
2024/02/23 01:57:36;;;;;;;;;;;8.90;74.40;;;;;;5039193;28;19929;-60
2024/02/23 02:00:13;;;;;;;;;;;8.90;74.70;;;;;;5034981;28;19925;-61
2024/02/23 02:02:52;;;;;;;;;;;8.90;74.70;;;;;;5041463;28;19936;-60
2024/02/23 02:05:25;;;;;;;;;;;8.90;74.40;;;;;;5043125;28;20475;-61
2024/02/23 02:07:59;;;;;;;;;;;8.80;75.00;;;;;;5042371;28;19927;-61
2024/02/23 02:10:34;;;;;;;;;;;8.80;75.10;;;;;;5043727;28;19928;-60
2024/02/23 02:13:08;;;;;;;;;;;8.80;75.60;;;;;;5036281;28;19928;-61
2024/02/23 02:15:43;;;;;;;;;;;8.80;76.00;;;;;;5039107;28;20352;-61
2024/02/23 02:18:17;;;;;;;;;;;8.70;76.10;;;;;;5033504;28;19961;-61
2024/02/23 02:20:52;;;;;;;;;;;8.70;76.30;;;;;;5039891;28;20371;-60
2024/02/23 02:23:26;;;;;;;;;;;8.70;76.20;;;;;;5040587;28;19932;-63
2024/02/23 02:26:00;;;;;;;;;;;8.60;76.20;;;;;;5039618;28;19991;-60
2024/02/23 02:28:34;;;;;;;;;;;8.60;76.50;;;;;;5038766;28;19933;-61
2024/02/23 02:31:07;;;;;;;;;;;8.60;76.80;;;;;;5039181;28;19929;-61
2024/02/23 02:33:41;;;;;;;;;;;8.50;76.60;;;;;;5035251;28;20014;-61
2024/02/23 02:36:14;;;;;;;;;;;8.50;76.80;;;;;;5034055;28;19929;-61
2024/02/23 02:38:47;;;;;;;;;;;8.50;76.60;;;;;;5040516;28;19936;-61
2024/02/23 02:41:17;;;;;;;;;;;8.50;76.60;;;;;;5038335;28;20042;-61
2024/02/23 02:43:50;;;;;;;;;;;8.50;76.00;;;;;;5032863;28;19940;-61
2024/02/23 02:46:23;;;;;;;;;;;8.50;75.50;;;;;;5038334;28;19928;-74
2024/02/23 02:48:56;;;;;;;;;;;8.40;75.50;;;;;;5043376;28;19975;-66
2024/02/23 02:51:29;;;;;;;;;;;8.40;75.40;;;;;;5056664;28;20300;-73
2024/02/23 02:54:02;;;;;;;;;;;8.40;75.40;;;;;;5065078;28;19928;-71
2024/02/23 02:56:36;;;;;;;;;;;8.40;75.40;;;;;;5064085;28;20318;-73
2024/02/23 02:59:10;;;;;;;;;;;8.40;75.20;;;;;;5047199;28;19944;-75
2024/02/23 03:01:44;;;;;;;;;;;8.40;75.50;;;;;;5056211;28;19929;-72
2024/02/23 03:04:17;;;;;;;;;;;8.40;75.20;;;;;;5062836;28;20449;-73
2024/02/23 03:06:56;;;;;;;;;;;8.40;74.80;;;;;;5055389;28;20473;-76
2024/02/23 03:09:30;;;;;;;;;;;8.40;75.20;;;;;;5052441;28;20070;-73
2024/02/23 03:12:04;;;;;;;;;;;8.40;75.30;;;;;;5038202;28;19932;-73
2024/02/23 03:14:39;;;;;;;;;;;8.30;75.80;;;;;;5042837;28;19929;-74
2024/02/23 03:17:12;;;;;;;;;;;8.30;76.10;;;;;;5045756;28;19935;-72
2024/02/23 03:19:45;;;;;;;;;;;8.40;76.20;;;;;;5047786;28;19982;-74
2024/02/23 03:22:18;;;;;;;;;;;8.30;76.10;;;;;;5043129;28;19932;-73
2024/02/23 03:24:51;;;;;;;;;;;8.20;76.30;;;;;;5042830;28;19925;-73
2024/02/23 03:27:28;;;;;;;;;;;8.10;77.00;;;;;;5043668;28;19933;-75
2024/02/23 03:30:02;;;;;;;;;;;8.10;77.10;;;;;;5044536;28;19932;-75
2024/02/23 03:32:37;;;;;;;;;;;8.10;76.90;;;;;;5045437;28;19943;-74
2024/02/23 03:35:11;;;;;;;;;;;8.20;76.80;;;;;;5041062;28;19937;-72
2024/02/23 03:37:37;;;;;;;;;;;8.10;76.00;;;;;;5038412;28;19940;-73
2024/02/23 03:40:11;;;;;;;;;;;8.10;75.60;;;;;;5039950;28;19933;-75
2024/02/23 03:42:45;;;;;;;;;;;8.10;76.30;;;;;;5047526;28;20331;-72
2024/02/23 03:45:19;;;;;;;;;;;8.10;76.40;;;;;;5039514;28;20219;-76
2024/02/23 03:47:52;;;;;;;;;;;8.00;76.60;;;;;;5043299;28;19978;-72
2024/02/23 03:50:25;;;;;;;;;;;8.00;76.70;;;;;;5044210;28;20015;-72
2024/02/23 03:52:58;;;;;;;;;;;8.00;77.10;;;;;;5042483;28;20698;-74
2024/02/23 03:55:31;;;;;;;;;;;8.00;77.60;;;;;;5045206;28;19936;-60
2024/02/23 03:58:06;;;;;;;;;;;8.00;77.20;;;;;;5048658;28;19963;-60
2024/02/23 04:00:39;;;;;;;;;;;8.00;77.10;;;;;;5045100;28;20020;-60
2024/02/23 04:03:12;;;;;;;;;;;7.90;77.60;;;;;;5041655;28;19968;-59
2024/02/23 04:05:51;;;;;;;;;;;7.90;77.40;;;;;;5044339;28;19933;-60
2024/02/23 04:08:25;;;;;;;;;;;8.00;77.50;;;;;;5041324;28;20018;-60
2024/02/23 04:10:58;;;;;;;;;;;8.00;77.50;;;;;;5035604;28;20871;-62
2024/02/23 04:13:32;;;;;;;;;;;7.90;77.20;;;;;;5038773;28;19929;-59
2024/02/23 04:16:06;;;;;;;;;;;7.80;77.30;;;;;;5034588;28;20335;-59
2024/02/23 04:18:39;;;;;;;;;;;7.80;76.70;;;;;;5035893;28;19933;-60
2024/02/23 04:21:12;;;;;;;;;;;7.80;77.10;;;;;;5027469;28;19983;-60
2024/02/23 04:23:45;;;;;;;;;;;7.80;76.70;;;;;;5061126;28;20002;-60
2024/02/23 04:26:18;;;;;;;;;;;7.70;76.40;;;;;;5032654;28;19936;-62
2024/02/23 04:28:52;;;;;;;;;;;7.80;76.30;;;;;;5039510;28;20012;-60
2024/02/23 04:31:26;;;;;;;;;;;7.70;76.20;;;;;;5050558;28;20019;-62
2024/02/23 04:33:59;;;;;;;;;;;7.70;75.90;;;;;;5057695;28;19924;-59
2024/02/23 04:36:32;;;;;;;;;;;7.60;75.60;;;;;;5052397;28;19929;-59
2024/02/23 04:39:05;;;;;;;;;;;7.60;75.90;;;;;;5038138;28;19987;-59
2024/02/23 04:41:38;;;;;;;;;;;7.60;75.80;;;;;;5044462;28;19931;-59
2024/02/23 04:44:06;;;;;;;;;;;7.50;75.70;;;;;;5039153;28;20372;-59
2024/02/23 04:46:39;;;;;;;;;;;7.40;75.60;;;;;;5041683;28;19950;-61
2024/02/23 04:49:06;;;;;;;;;;;7.50;75.90;;;;;;5044494;28;19928;-59
2024/02/23 04:51:39;;;;;;;;;;;7.40;75.90;;;;;;5043759;28;19955;-60
2024/02/23 04:54:12;;;;;;;;;;;7.40;75.90;;;;;;5058058;28;19932;-59
2024/02/23 04:56:45;;;;;;;;;;;7.40;75.90;;;;;;5044300;28;19968;-60
2024/02/23 04:59:19;;;;;;;;;;;7.30;75.70;;;;;;5040324;28;20402;-60
2024/02/23 05:01:47;;;;;;;;;;;7.20;75.60;;;;;;5038696;28;19931;-59
2024/02/23 05:04:20;;;;;;;;;;;7.30;76.00;;;;;;5041210;28;19970;-59
2024/02/23 05:06:53;;;;;;;;;;;7.30;75.30;;;;;;5064406;28;19924;-60
2024/02/23 05:09:27;;;;;;;;;;;7.30;75.30;;;;;;5043594;28;19975;-60
2024/02/23 05:12:00;;;;;;;;;;;7.40;75.30;;;;;;5055237;28;19933;-59
2024/02/23 05:14:34;;;;;;;;;;;7.30;75.50;;;;;;5052895;28;20015;-59
2024/02/23 05:17:08;;;;;;;;;;;7.40;75.80;;;;;;5065688;28;19929;-59
2024/02/23 05:19:41;;;;;;;;;;;7.40;75.30;;;;;;5061067;28;20107;-59
2024/02/23 05:22:07;;;;;;;;;;;7.30;75.50;;;;;;5059761;28;20351;-58
2024/02/23 05:24:41;;;;;;;;;;;7.40;75.70;;;;;;5041680;28;19931;-59
2024/02/23 05:27:14;;;;;;;;;;;7.40;75.40;;;;;;5043630;28;19944;-59
2024/02/23 05:29:48;;;;;;;;;;;7.40;75.40;;;;;;5041504;28;19925;-58
2024/02/23 05:32:22;;;;;;;;;;;7.40;75.50;;;;;;5037975;28;19964;-59
2024/02/23 05:34:56;;;;;;;;;;;7.40;75.10;;;;;;5047024;28;19937;-58
2024/02/23 05:37:30;;;;;;;;;;;7.30;75.20;;;;;;5050732;28;20056;-59
2024/02/23 05:40:09;;;;;;;;;;;7.30;75.20;;;;;;5063823;28;19928;-60
2024/02/23 05:42:43;;;;;;;;;;;7.30;75.40;;;;;;5058724;28;19928;-59
2024/02/23 05:45:17;;;;;;;;;;;7.20;75.60;;;;;;5056173;28;19933;-61
2024/02/23 05:47:51;;;;;;;;;;;7.20;75.30;;;;;;5039241;28;19939;-58
2024/02/23 05:50:24;;;;;;;;;;;7.30;75.30;;;;;;5045804;28;19929;-60
2024/02/23 05:52:58;;;;;;;;;;;7.20;75.30;;;;;;5064180;28;19939;-59
2024/02/23 05:55:31;;;;;;;;;;;7.20;75.20;;;;;;5056474;28;19932;-59
2024/02/23 05:57:58;;;;;;;;;;;7.20;75.70;;;;;;5043420;28;20003;-59
2024/02/23 06:00:32;;;;;;;;;;;7.10;75.20;;;;;;5054941;28;19928;-59
2024/02/23 06:03:06;;;;;;;;;;;7.20;75.30;;;;;;5062166;28;20294;-59
2024/02/23 06:05:40;;;;;;;;;;;7.20;74.90;;;;;;5056327;28;19928;-61
2024/02/23 06:08:13;;;;;;;;;;;7.20;75.20;;;;;;5037748;28;19925;-59
2024/02/23 06:10:46;;;;;;;;;;;7.20;75.00;;;;;;5062486;28;20329;-59
2024/02/23 06:13:19;;;;;;;;;;;7.20;75.10;;;;;;5055069;28;20023;-59
2024/02/23 06:15:53;;;;;;;;;;;7.20;75.00;;;;;;5061175;28;19924;-57
2024/02/23 06:18:27;;;;;;;;;;;7.20;75.10;;;;;;5059555;28;20476;-57
2024/02/23 06:21:00;;;;;;;;;;;7.20;75.30;;;;;;5049635;28;19932;-58
2024/02/23 06:23:33;;;;;;;;;;;7.20;74.90;;;;;;5059217;28;19928;-59
2024/02/23 06:26:06;;;;;;;;;;;7.20;75.30;;;;;;5059848;28;20042;-57
2024/02/23 06:28:41;;;;;;;;;;;7.20;74.90;;;;;;5056004;28;19928;-59
2024/02/23 06:31:15;;;;;;;;;;;7.20;75.10;;;;;;5048699;28;20642;-58
2024/02/23 06:33:51;;;;;;;;;;;7.20;74.70;;;;;;5052326;28;20458;-57
2024/02/23 06:36:24;;;;;;;;;;;7.10;74.80;;;;;;5043259;28;19928;-57
2024/02/23 06:38:57;;;;;;;;;;;7.10;75.00;;;;;;5041856;28;20785;-56
2024/02/23 06:41:31;;;;;;;;;;;7.10;75.30;;;;;;5042779;28;19960;-58
2024/02/23 06:44:04;;;;;;;;;;;7.10;75.00;;;;;;5030564;28;19982;-59
2024/02/23 06:46:38;;;;;;;;;;;7.10;75.20;;;;;;5041799;28;20337;-57
2024/02/23 06:49:12;;;;;;;;;;;7.10;75.40;;;;;;5041848;28;20028;-59
2024/02/23 06:51:45;;;;;;;;;;;7.00;75.20;;;;;;5043006;28;19935;-58
2024/02/23 06:54:18;;;;;;;;;;;7.00;75.50;;;;;;5042164;28;20334;-57
2024/02/23 06:56:51;;;;;;;;;;;7.00;75.30;;;;;;5040149;28;19925;-57
2024/02/23 06:59:33;;;;;;;;;;;7.00;75.80;;;;;;5040723;28;23778;-57
2024/02/23 07:02:14;;;;;;;;;;;7.00;75.80;;;;;;5040308;28;20287;-58
2024/02/23 07:04:47;;;;;;;;;;;6.90;75.50;;;;;;5045485;28;19975;-57
2024/02/23 07:07:20;;;;;;;;;;;7.00;75.90;;;;;;5041392;28;19931;-58
2024/02/23 07:09:55;;;;;;;;;;;7.00;75.80;;;;;;5043108;28;19929;-58
2024/02/23 07:12:28;;;;;;;;;;;7.00;75.80;;;;;;5045037;28;19928;-58
2024/02/23 07:15:02;;;;;;;;;;;7.00;75.80;;;;;;5051353;28;20056;-57
2024/02/23 07:17:37;;;;;;;;;;;7.10;75.70;;;;;;5039264;28;19971;-57
2024/02/23 07:20:11;;;;;;;;;;;7.10;75.80;;;;;;5035734;28;20367;-58
2024/02/23 07:22:45;;;;;;;;;;;7.10;75.50;;;;;;5034378;28;19928;-58
2024/02/23 07:25:20;;;;;;;;;;;7.10;75.80;;;;;;5043561;28;20020;-58
2024/02/23 07:27:53;;;;;;;;;;;7.10;75.60;;;;;;5039074;28;20027;-58
2024/02/23 07:30:27;;;;;;;;;;;7.10;75.40;;;;;;5035989;28;19952;-57
2024/02/23 07:33:01;;;;;;;;;;;7.10;75.70;;;;;;5040894;28;19925;-58
2024/02/23 07:35:35;;;;;;;;;;;7.10;75.30;;;;;;5036040;28;19936;-57
2024/02/23 07:38:08;;;;;;;;;;;7.20;75.80;;;;;;5037405;28;19925;-59
2024/02/23 07:40:44;;;;;;;;;;;7.20;75.50;;;;;;5043019;28;19924;-58
2024/02/23 07:43:18;;;;;;;;;;;7.10;75.50;;;;;;5039379;28;19931;-58
2024/02/23 07:45:51;;;;;;;;;;;7.10;75.80;;;;;;5038244;28;20576;-57
2024/02/23 07:48:25;;;;;;;;;;;7.20;75.70;;;;;;5045525;28;20011;-59
2024/02/23 07:50:59;;;;;;;;;;;7.20;75.60;;;;;;5044191;28;20024;-59
2024/02/23 07:53:32;;;;;;;;;;;7.20;75.50;;;;;;5044723;28;19929;-58
2024/02/23 07:56:08;;;;;;;;;;;7.20;75.10;;;;;;5057446;28;20427;-59
2024/02/23 07:58:47;;;;;;;;;;;7.20;75.30;;;;;;5052559;28;20034;-56
2024/02/23 08:01:21;;;;;;;;;;;7.20;75.10;;;;;;5051532;28;19928;-57
2024/02/23 08:03:56;;;;;;;;;;;7.30;75.40;;;;;;5067272;28;19928;-58
2024/02/23 08:06:30;;;;;;;;;;;7.30;75.20;;;;;;5055388;28;19925;-58
2024/02/23 08:09:03;;;;;;;;;;;7.30;74.80;;;;;;5039985;28;19932;-59
2024/02/23 08:12:07;;;;;;;;;;;7.30;75.10;;;;;;5048085;28;20008;-58
2024/02/23 08:14:41;;;;;;;;;;;7.40;75.00;;;;;;5045464;28;19929;-57
2024/02/23 08:17:14;;;;;;;;;;;7.40;74.80;;;;;;5045527;28;19925;-57
2024/02/23 08:19:48;;;;;;;;;;;7.40;74.60;;;;;;5039850;28;19951;-57
2024/02/23 08:22:23;;;;;;;;;;;7.40;74.80;;;;;;5047636;28;19928;-58
2024/02/23 08:24:56;;;;;;;;;;;7.50;74.60;;;;;;5041044;28;19929;-60
2024/02/23 08:27:28;;;;;;;;;;;7.60;74.80;;;;;;5046155;28;19932;-58
2024/02/23 08:30:01;;;;;;;;;;;7.50;74.60;;;;;;5038130;28;20116;-57
2024/02/23 08:32:34;;;;;;;;;;;7.60;74.10;;;;;;5044261;28;19928;-58
2024/02/23 08:35:09;;;;;;;;;;;7.60;73.70;;;;;;5050384;28;20589;-59
2024/02/23 08:37:42;;;;;;;;;;;7.70;73.80;;;;;;5042506;28;19932;-57
2024/02/23 08:40:16;;;;;;;;;;;7.70;73.30;;;;;;5061668;28;20046;-58
2024/02/23 08:42:49;;;;;;;;;;;7.70;73.00;;;;;;5058718;28;19928;-58
2024/02/23 08:45:23;;;;;;;;;;;7.70;73.30;;;;;;5061936;28;19935;-57
2024/02/23 08:47:56;;;;;;;;;;;7.70;73.30;;;;;;5046594;28;19956;-58
2024/02/23 08:50:30;;;;;;;;;;;7.80;73.50;;;;;;5047448;28;19929;-59
2024/02/23 08:53:04;;;;;;;;;;;7.90;73.20;;;;;;5053932;28;20170;-56
2024/02/23 08:55:37;;;;;;;;;;;8.00;72.80;;;;;;5052645;28;20063;-57
2024/02/23 08:58:10;;;;;;;;;;;8.10;72.50;;;;;;5059664;28;19936;-57
2024/02/23 09:00:43;;;;;;;;;;;8.20;72.30;;;;;;5061783;28;19935;-57
2024/02/23 09:03:16;;;;;;;;;;;8.40;72.10;;;;;;5061502;28;20010;-58
2024/02/23 09:05:50;;;;;;;;;;;8.30;71.90;;;;;;5052516;28;20287;-60
2024/02/23 09:08:24;;;;;;;;;;;8.20;72.00;;;;;;5042117;28;19929;-57
2024/02/23 09:10:57;;;;;;;;;;;8.30;72.00;;;;;;5044803;28;20791;-59
2024/02/23 09:13:31;;;;;;;;;;;8.40;71.80;;;;;;5040249;28;20032;-58
2024/02/23 09:19:07;;;;;;;;;;;8.50;71.40;;;;;;5039963;28;19933;-58
2024/02/23 09:21:41;;;;;;;;;;;8.50;71.50;;;;;;5041511;28;19994;-58
2024/02/23 09:24:15;;;;;;;;;;;8.50;71.60;;;;;;5044284;28;19929;-58
2024/02/23 09:26:48;;;;;;;;;;;8.50;71.50;;;;;;5044438;28;19925;-59
2024/02/23 09:29:21;;;;;;;;;;;8.50;71.20;;;;;;5045277;28;20292;-57
2024/02/23 09:32:20;;;;;;;;;;;8.60;71.30;;;;;;5054448;28;19924;-57
2024/02/23 09:34:53;;;;;;;;;;;8.60;71.10;;;;;;5065328;28;20348;-57
2024/02/23 09:37:27;;;;;;;;;;;8.60;71.00;;;;;;5057797;28;19943;-56
2024/02/23 09:40:02;;;;;;;;;;;8.60;70.50;;;;;;5065653;28;19948;-58
2024/02/23 09:42:35;;;;;;;;;;;8.50;70.60;;;;;;5059172;28;19929;-58
2024/02/23 09:45:09;;;;;;;;;;;8.60;70.40;;;;;;5051642;28;20397;-60
2024/02/23 09:47:43;;;;;;;;;;;8.50;70.20;;;;;;5057455;28;20033;-60
2024/02/23 09:50:19;;;;;;;;;;;8.60;70.60;;;;;;5057227;28;19972;-62
2024/02/23 09:52:53;;;;;;;;;;;8.60;70.70;;;;;;5044773;28;19944;-61
2024/02/23 09:55:27;;;;;;;;;;;8.60;70.80;;;;;;5042857;28;20291;-60
2024/02/23 09:58:00;;;;;;;;;;;8.70;70.20;;;;;;5051036;28;19999;-62
2024/02/23 10:00:34;;;;;;;;;;;8.60;70.20;;;;;;5060082;28;19935;-61
2024/02/23 10:03:08;;;;;;;;;;;8.70;69.90;;;;;;5046375;28;20348;-60
2024/02/23 10:05:42;;;;;;;;;;;8.70;69.80;;;;;;5035024;28;19936;-59
2024/02/23 10:08:10;;;;;;;;;;;8.70;69.70;;;;;;5042795;28;19938;-61
2024/02/23 10:10:46;;;;;;;;;;;8.70;69.70;;;;;;5047219;28;19928;-61
2024/02/23 10:13:21;;;;;;;;;;;8.70;69.90;;;;;;5039216;28;19973;-61
2024/02/23 10:15:55;;;;;;;;;;;8.80;69.70;;;;;;5040322;28;19960;-61
2024/02/23 10:18:28;;;;;;;;;;;8.70;69.70;;;;;;5044853;28;19925;-61
2024/02/23 10:21:01;;;;;;;;;;;8.80;69.50;;;;;;5040743;28;19925;-63
2024/02/23 10:23:35;;;;;;;;;;;8.70;69.50;;;;;;5042157;28;19932;-61
2024/02/23 10:26:09;;;;;;;;;;;8.70;69.50;;;;;;5039682;28;19950;-60
2024/02/23 10:28:42;;;;;;;;;;;8.70;69.50;;;;;;5038696;28;20044;-61
2024/02/23 10:31:15;;;;;;;;;;;8.70;69.00;;;;;;5038622;28;19924;-60
2024/02/23 10:34:19;;;;;;;;;;;8.70;69.30;;;;;;5041737;28;19924;-61
2024/02/23 10:36:53;;;;;;;;;;;8.70;69.30;;;;;;5043302;28;19929;-59
2024/02/23 10:39:30;;;;;;;;;;;8.70;69.30;;;;;;5043776;28;19932;-61
2024/02/23 10:42:04;;;;;;;;;;;8.70;69.30;;;;;;5046176;28;19924;-61
2024/02/23 10:44:38;;;;;;;;;;;8.70;68.70;;;;;;5043511;28;19933;-61
2024/02/23 10:47:48;;;;;;;;;;;8.70;68.60;;;;;;5037479;28;20578;-61
2024/02/23 10:50:22;;;;;;;;;;;8.70;68.50;;;;;;5034056;28;19929;-62
2024/02/23 10:52:56;;;;;;;;;;;8.80;68.20;;;;;;5033493;28;19929;-61
2024/02/23 10:55:32;;;;;;;;;;;8.80;68.50;;;;;;5036958;28;19925;-60
2024/02/23 10:58:08;;;;;;;;;;;8.90;68.40;;;;;;5032223;28;20350;-61
2024/02/23 11:00:49;;;;;;;;;;;9.00;68.10;;;;;;5037901;28;19925;-57
2024/02/23 11:03:37;;;;;;;;;;;9.10;67.90;;;;;;5041489;28;19984;-58
2024/02/23 11:06:10;;;;;;;;;;;9.10;67.70;;;;;;5040921;28;19932;-58
2024/02/23 11:08:43;;;;;;;;;;;9.10;67.40;;;;;;5038897;28;19933;-58
2024/02/23 11:11:18;;;;;;;;;;;9.20;67.50;;;;;;5038407;28;19936;-58
2024/02/23 11:14:00;;;;;;;;;;;9.20;67.50;;;;;;5034400;28;19939;-57
2024/02/23 11:16:34;;;;;;;;;;;9.30;67.10;;;;;;5042298;28;19931;-57
2024/02/23 11:19:09;;;;;;;;;;;9.20;67.20;;;;;;5045857;28;19936;-57
2024/02/23 11:21:42;;;;;;;;;;;9.20;67.20;;;;;;5053407;28;20327;-58
2024/02/23 11:24:17;;;;;;;;;;;9.20;67.40;;;;;;5055245;28;19932;-57
2024/02/23 11:26:56;;;;;;;;;;;9.20;67.50;;;;;;5052336;28;19932;-57
2024/02/23 11:29:32;;;;;;;;;;;9.20;67.50;;;;;;5045869;28;19954;-58
2024/02/23 11:32:12;;;;;;;;;;;9.20;67.70;;;;;;5057153;28;21482;-59
2024/02/23 11:35:02;;;;;;;;;;;9.20;67.70;;;;;;5049072;28;19929;-58
2024/02/23 11:37:45;;;;;;;;;;;9.20;67.80;;;;;;5040914;28;19929;-58
2024/02/23 11:40:19;;;;;;;;;;;9.30;67.70;;;;;;5051702;28;19931;-58
2024/02/23 11:42:55;;;;;;;;;;;9.40;67.50;;;;;;5045438;28;19929;-57
2024/02/23 11:45:29;;;;;;;;;;;9.40;67.60;;;;;;5041646;28;19939;-58
2024/02/23 11:48:02;;;;;;;;;;;9.30;67.20;;;;;;5046063;28;20004;-59
2024/02/23 11:50:36;;;;;;;;;;;9.40;67.00;;;;;;5046824;28;19932;-58
2024/02/23 11:53:09;;;;;;;;;;;9.30;67.10;;;;;;5042410;28;20449;-58
2024/02/23 11:55:42;;;;;;;;;;;9.30;66.50;;;;;;5038680;28;19929;-58
2024/02/23 11:58:18;;;;;;;;;;;9.40;66.70;;;;;;5042493;28;19935;-58
2024/02/23 12:00:51;;;;;;;;;;;9.40;66.70;;;;;;5042319;28;19925;-57
2024/02/23 12:03:27;;;;;;;;;;;9.40;66.50;;;;;;5046226;28;19963;-58
2024/02/23 12:06:29;;;;;;;;;;;9.50;66.10;;;;;;5044163;28;21545;-60
2024/02/23 12:09:07;;;;;;;;;;;9.60;66.10;;;;;;5034286;28;20754;-59
2024/02/23 12:11:41;;;;;;;;;;;9.70;65.90;;;;;;5034175;28;19928;-60
2024/02/23 12:14:16;;;;;;;;;;;9.70;65.70;;;;;;5038803;28;19998;-60
2024/02/23 12:16:49;;;;;;;;;;;9.70;66.00;;;;;;5044750;28;19936;-58
2024/02/23 12:19:23;;;;;;;;;;;9.70;65.60;;;;;;5036451;28;19964;-63
2024/02/23 12:22:00;;;;;;;;;;;9.70;65.30;;;;;;5040194;28;19935;-61
2024/02/23 12:24:33;;;;;;;;;;;9.70;65.60;;;;;;5035911;28;19925;-59
2024/02/23 12:27:06;;;;;;;;;;;9.70;65.70;;;;;;5046710;28;19974;-60
2024/02/23 12:29:34;;;;;;;;;;;9.80;65.00;;;;;;5038618;28;19924;-61
2024/02/23 12:32:07;;;;;;;;;;;9.80;65.30;;;;;;5039229;28;19929;-60
2024/02/23 12:34:44;;;;;;;;;;;9.90;65.10;;;;;;5041912;28;19925;-60
2024/02/23 12:37:17;;;;;;;;;;;10.00;64.80;;;;;;5038670;28;19960;-59
2024/02/23 12:39:51;;;;;;;;;;;10.00;64.50;;;;;;5047468;28;20376;-60
2024/02/23 12:42:24;;;;;;;;;;;10.00;64.60;;;;;;5040023;28;20403;-60
2024/02/23 12:44:58;;;;;;;;;;;9.90;65.00;;;;;;5042369;28;20020;-60
2024/02/23 12:47:32;;;;;;;;;;;10.00;64.60;;;;;;5044710;28;19933;-60
2024/02/23 12:50:06;;;;;;;;;;;10.10;64.00;;;;;;5039705;28;19933;-60
2024/02/23 12:52:39;;;;;;;;;;;10.20;64.40;;;;;;5040210;28;19979;-60
2024/02/23 12:55:12;;;;;;;;;;;10.20;64.40;;;;;;5032285;28;20375;-61
2024/02/23 12:57:45;;;;;;;;;;;10.20;64.40;;;;;;5045012;28;20003;-61
2024/02/23 13:00:19;;;;;;;;;;;10.10;64.10;;;;;;5040271;28;19931;-59
2024/02/23 13:02:53;;;;;;;;;;;10.10;64.20;;;;;;5047681;28;19929;-60
2024/02/23 13:05:27;;;;;;;;;;;10.10;63.90;;;;;;5046625;28;20399;-60
2024/02/23 13:08:00;;;;;;;;;;;10.10;64.30;;;;;;5043268;28;19932;-62
2024/02/23 13:10:34;;;;;;;;;;;10.10;64.30;;;;;;5043408;28;19957;-61
2024/02/23 13:13:08;;;;;;;;;;;10.10;64.60;;;;;;5035590;28;19935;-60
2024/02/23 13:15:42;;;;;;;;;;;10.00;64.90;;;;;;5042799;28;19929;-62
2024/02/23 13:18:16;;;;;;;;;;;10.00;64.50;;;;;;5037210;28;19937;-60
2024/02/23 13:20:49;;;;;;;;;;;10.10;64.40;;;;;;5039085;28;19924;-59
2024/02/23 13:23:22;;;;;;;;;;;10.10;63.80;;;;;;5035980;28;20458;-59
2024/02/23 13:25:55;;;;;;;;;;;10.10;64.10;;;;;;5039451;28;20311;-59
2024/02/23 13:28:28;;;;;;;;;;;10.10;63.30;;;;;;5037341;28;19932;-59
2024/02/23 13:30:56;;;;;;;;;;;10.10;63.80;;;;;;5043196;28;19929;-59
2024/02/23 13:33:29;;;;;;;;;;;10.20;63.80;;;;;;5043953;28;19935;-59
2024/02/23 13:36:03;;;;;;;;;;;10.20;63.70;;;;;;5061836;28;19932;-60
2024/02/23 13:38:39;;;;;;;;;;;10.20;63.50;;;;;;5046880;28;20355;-61
2024/02/23 13:41:12;;;;;;;;;;;10.20;63.30;;;;;;5061357;28;19931;-60
2024/02/23 13:43:45;;;;;;;;;;;10.30;64.20;;;;;;5055414;28;19928;-60
2024/02/23 13:46:20;;;;;;;;;;;10.20;63.90;;;;;;5057746;28;20025;-61
2024/02/23 13:49:03;;;;;;;;;;;10.30;63.40;;;;;;5058962;28;19929;-59
2024/02/23 13:51:43;;;;;;;;;;;10.30;63.80;;;;;;5062378;28;19956;-59
2024/02/23 13:54:16;;;;;;;;;;;10.30;64.10;;;;;;5061979;28;19925;-59
2024/02/23 13:56:49;;;;;;;;;;;10.20;64.10;;;;;;5044507;28;20007;-59
2024/02/23 13:59:22;;;;;;;;;;;10.10;62.80;;;;;;5043361;28;19932;-59
2024/02/23 14:01:51;;;;;;;;;;;10.10;63.40;;;;;;5054948;28;19931;-59
2024/02/23 14:04:25;;;;;;;;;;;10.00;62.60;;;;;;5061528;28;19930;-60
2024/02/23 14:06:59;;;;;;;;;;;10.10;64.10;;;;;;5061056;28;19928;-61
2024/02/23 14:09:32;;;;;;;;;;;10.10;63.90;;;;;;5045500;28;20008;-60
2024/02/23 14:12:05;;;;;;;;;;;10.10;64.00;;;;;;5045323;28;19929;-59
2024/02/23 14:14:39;;;;;;;;;;;10.00;63.70;;;;;;5059785;28;19929;-59
2024/02/23 14:17:14;;;;;;;;;;;10.00;64.50;;;;;;5036323;28;20277;-63
2024/02/23 14:19:47;;;;;;;;;;;9.90;64.00;;;;;;5042409;28;19932;-59
2024/02/23 14:22:24;;;;;;;;;;;9.90;65.50;;;;;;5055095;28;19925;-60
2024/02/23 14:24:58;;;;;;;;;;;9.80;66.80;;;;;;5065511;28;19935;-65
2024/02/23 14:27:31;;;;;;;;;;;9.80;67.80;;;;;;5044611;28;19931;-65
2024/02/23 14:30:06;;;;;;;;;;;9.80;68.00;;;;;;5044657;28;19954;-65
2024/02/23 14:32:42;;;;;;;;;;;9.80;68.40;;;;;;5044240;28;19925;-64
2024/02/23 14:35:19;;;;;;;;;;;9.80;68.80;;;;;;5041136;28;20691;-64
2024/02/23 14:37:52;;;;;;;;;;;9.80;68.70;;;;;;5044178;28;19924;-64
2024/02/23 14:40:25;;;;;;;;;;;9.80;69.20;;;;;;5042860;28;20012;-65
2024/02/23 14:42:52;;;;;;;;;;;9.80;69.30;;;;;;5045668;28;19925;-63
2024/02/23 14:45:27;;;;;;;;;;;9.80;69.60;;;;;;5044389;28;19932;-64
2024/02/23 14:48:02;;;;;;;;;;;9.90;69.60;;;;;;5045024;28;19949;-64
2024/02/23 14:50:35;;;;;;;;;;;9.90;69.70;;;;;;5045024;28;19932;-64
2024/02/23 14:53:08;;;;;;;;;;;9.80;70.00;;;;;;5044872;28;19924;-66
2024/02/23 14:55:41;;;;;;;;;;;9.70;69.90;;;;;;5043312;28;20004;-65
2024/02/23 14:58:14;;;;;;;;;;;9.70;70.30;;;;;;5044733;28;19940;-66
2024/02/23 15:00:47;;;;;;;;;;;9.60;70.20;;;;;;5043636;28;20282;-65
2024/02/23 15:03:22;;;;;;;;;;;9.60;70.60;;;;;;5042083;28;20277;-65
2024/02/23 15:05:55;;;;;;;;;;;9.50;70.70;;;;;;5044648;28;19931;-65
2024/02/23 15:08:28;;;;;;;;;;;9.50;70.70;;;;;;5038859;28;19925;-65
2024/02/23 15:11:01;;;;;;;;;;;9.40;70.90;;;;;;5042279;28;19929;-64